createdAt,value
2023-04-16T00:00:05.582Z,97508.72
2023-04-16T00:05:13.639Z,97509.69
2023-04-16T00:10:16.113Z,97511.63
2023-04-16T00:15:17.917Z,97502.41
2023-04-16T00:20:20.518Z,97509.69
2023-04-16T00:25:22.534Z,97516.31
2023-04-16T00:30:24.286Z,97508.06
2023-04-16T00:35:26.117Z,97516.94
2023-04-16T00:40:29.198Z,97515.97
2023-04-16T00:45:31.346Z,97517.91
2023-04-16T00:50:34.047Z,97507.25
2023-04-16T00:55:36.755Z,97507.88
2023-04-16T01:00:38.671Z,97506.91
2023-04-16T01:05:41.083Z,97514.81
2023-04-16T01:10:42.980Z,97516.44
2023-04-16T01:15:44.825Z,97520.78
2023-04-16T01:20:48.057Z,97527.59
2023-04-16T01:25:49.911Z,97534.06
2023-04-16T01:30:51.860Z,97539.56
2023-04-16T01:36:14.056Z,97541.34
2023-04-16T01:41:15.989Z,97541.50
2023-04-16T01:46:27.274Z,97543.31
2023-04-16T01:51:29.117Z,97539.78
2023-04-16T01:56:30.969Z,97546.09
2023-04-16T02:01:32.852Z,97554.50
2023-04-16T02:06:34.940Z,97554.31
2023-04-16T02:11:36.972Z,97558.38
2023-04-16T02:16:38.929Z,97560.16
2023-04-16T02:21:55.060Z,97559.00
2023-04-16T02:26:57.049Z,97558.03
2023-04-16T02:31:59.830Z,97556.25
2023-04-16T02:37:03.026Z,97565.66
2023-04-16T02:42:04.883Z,97571.13
2023-04-16T02:47:06.701Z,97575.97
2023-04-16T02:52:08.480Z,97577.59
2023-04-16T02:57:10.354Z,97571.44
2023-04-16T03:02:12.364Z,97578.56
2023-04-16T03:07:14.347Z,97592.81
2023-04-16T03:12:16.256Z,97589.41
2023-04-16T03:17:18.137Z,97593.59
2023-04-16T03:22:20.153Z,97593.78
2023-04-16T03:27:21.971Z,97594.09
2023-04-16T03:32:24.057Z,97597.78
2023-04-16T03:37:26.236Z,97593.75
2023-04-16T03:42:28.391Z,97599.91
2023-04-16T03:47:32.401Z,97592.91
2023-04-16T03:52:37.431Z,97605.84
2023-04-16T03:57:39.325Z,97601.44
2023-04-16T04:02:45.973Z,97608.56
2023-04-16T04:07:53.971Z,97612.13
2023-04-16T04:12:55.816Z,97614.38
2023-04-16T04:17:57.917Z,97621.00
2023-04-16T04:22:59.942Z,97630.34
2023-04-16T04:28:02.500Z,97636.75
2023-04-16T04:33:04.521Z,97643.84
2023-04-16T04:38:06.663Z,97646.78
2023-04-16T04:43:09.355Z,97644.91
2023-04-16T04:48:11.320Z,97643.78
2023-04-16T04:53:14.964Z,97651.94
2023-04-16T04:58:17.703Z,97660.84
2023-04-16T05:03:21.482Z,97660.38
2023-04-16T05:08:23.204Z,97666.22
2023-04-16T05:13:24.786Z,97681.06
2023-04-16T05:18:26.737Z,97680.75
2023-04-16T05:23:28.366Z,97680.75
2023-04-16T05:28:31.066Z,97687.63
2023-04-16T05:33:32.733Z,97699.47
2023-04-16T05:38:34.426Z,97707.91
2023-04-16T05:43:36.062Z,97708.34
2023-04-16T05:48:37.715Z,97706.28
2023-04-16T05:53:39.356Z,97717.16
2023-04-16T05:58:41.000Z,97708.25
2023-04-16T06:03:42.716Z,97723.75
2023-04-16T06:08:44.392Z,97722.28
2023-04-16T06:13:46.035Z,97726.84
2023-04-16T06:18:47.774Z,97726.84
2023-04-16T06:23:49.455Z,97738.03
2023-04-16T06:28:51.132Z,97745.13
2023-04-16T06:33:52.721Z,97744.41
2023-04-16T06:38:54.341Z,97739.56
2023-04-16T06:43:56.028Z,97739.84
2023-04-16T06:48:57.615Z,97751.53
2023-04-16T06:53:59.360Z,97755.66
2023-04-16T06:59:01.061Z,97767.97
2023-04-16T07:04:03.722Z,97768.69
2023-04-16T07:09:05.660Z,97767.00
2023-04-16T07:14:07.495Z,97765.38
2023-04-16T07:19:09.527Z,97773.94
2023-04-16T07:24:11.824Z,97773.44
2023-04-16T07:29:13.626Z,97781.84
2023-04-16T07:34:15.362Z,97778.78
2023-04-16T07:39:17.099Z,97791.28
2023-04-16T07:44:18.828Z,97802.03
2023-04-16T07:49:20.641Z,97810.53
2023-04-16T07:54:24.414Z,97799.59
2023-04-16T07:59:26.497Z,97813.59
2023-04-16T08:04:28.571Z,97814.31
2023-04-16T08:09:30.406Z,97813.91
2023-04-16T08:14:32.082Z,97816.91
2023-04-16T08:19:33.732Z,97828.00
2023-04-16T08:24:35.411Z,97835.84
2023-04-16T08:29:37.049Z,97837.28
2023-04-16T08:34:38.684Z,97846.13
2023-04-16T08:39:40.520Z,97847.81
2023-04-16T08:44:49.014Z,97853.81
2023-04-16T08:49:57.924Z,97857.00
2023-04-16T08:55:14.348Z,97860.53
2023-04-16T09:00:16.850Z,97855.31
2023-04-16T09:05:20.747Z,97866.03
2023-04-16T09:10:23.173Z,97870.91
2023-04-16T09:15:25.820Z,97873.56
2023-04-16T09:20:27.471Z,97874.78
2023-04-16T09:25:33.770Z,97877.06
2023-04-16T09:30:37.153Z,97878.16
2023-04-16T09:35:52.767Z,97884.81
2023-04-16T09:41:08.209Z,97887.69
2023-04-16T09:46:12.929Z,97895.38
2023-04-16T09:51:14.610Z,97902.81
2023-04-16T09:56:16.572Z,97893.84
2023-04-16T10:01:18.314Z,97899.88
2023-04-16T10:06:22.173Z,97914.00
2023-04-16T10:11:24.551Z,97912.56
2023-04-16T10:16:26.775Z,97914.63
2023-04-16T10:21:34.129Z,97921.75
2023-04-16T10:26:36.584Z,97930.00
2023-04-16T10:31:39.676Z,97933.66
2023-04-16T10:36:42.059Z,97941.06
2023-04-16T10:41:43.738Z,97935.63
2023-04-16T10:46:50.530Z,97925.00
2023-04-16T10:52:02.346Z,97933.94
2023-04-16T10:57:08.584Z,97930.31
2023-04-16T11:02:16.340Z,97943.88
2023-04-16T11:07:20.479Z,97935.63
2023-04-16T11:12:24.655Z,97941.38
2023-04-16T11:17:43.337Z,97932.50
2023-04-16T11:22:47.840Z,97935.38
2023-04-16T11:27:50.595Z,97948.56
2023-04-16T11:32:52.314Z,97943.13
2023-04-16T11:37:58.021Z,97944.44
2023-04-16T11:43:16.802Z,97950.50
2023-04-16T11:48:18.399Z,97955.66
2023-04-16T11:53:20.066Z,97951.09
2023-04-16T11:58:23.368Z,97950.34
2023-04-16T12:03:44.249Z,97953.16
2023-04-16T12:08:46.135Z,97956.84
2023-04-16T12:14:07.081Z,97954.16
2023-04-16T12:19:12.510Z,97964.78
2023-04-16T12:24:16.765Z,97958.81
2023-04-16T12:29:23.923Z,97970.72
2023-04-16T12:34:29.099Z,97969.97
2023-04-16T12:39:48.143Z,97972.13
2023-04-16T12:44:50.003Z,97973.25
2023-04-16T12:49:51.617Z,97971.81
2023-04-16T12:54:53.469Z,97972.25
2023-04-16T12:59:58.967Z,97976.03
2023-04-16T13:05:00.662Z,97970.84
2023-04-16T13:10:02.762Z,97974.38
2023-04-16T13:15:05.171Z,97975.09
2023-04-16T13:20:07.651Z,97978.38
2023-04-16T13:25:09.873Z,97978.00
2023-04-16T13:30:11.882Z,97986.13
2023-04-16T13:35:13.546Z,97979.00
2023-04-16T13:40:15.259Z,97981.25
2023-04-16T13:45:17.027Z,97981.56
2023-04-16T13:50:18.782Z,97983.09
2023-04-16T13:55:20.485Z,97993.13
2023-04-16T14:00:22.296Z,97996.47
2023-04-16T14:05:26.441Z,97995.00
2023-04-16T14:10:29.107Z,97993.81
2023-04-16T14:15:30.850Z,97987.41
2023-04-16T14:20:33.221Z,97989.78
2023-04-16T14:25:35.289Z,97998.38
2023-04-16T14:30:36.936Z,97995.94
2023-04-16T14:35:38.594Z,97991.25
2023-04-16T14:40:40.240Z,97984.47
2023-04-16T14:45:41.922Z,97998.56
2023-04-16T14:50:44.284Z,97992.94
2023-04-16T14:55:45.942Z,97994.66
2023-04-16T15:00:50.020Z,98001.06
2023-04-16T15:05:55.757Z,97996.31
2023-04-16T15:10:57.549Z,98016.34
2023-04-16T15:16:03.042Z,98010.75
2023-04-16T15:21:04.694Z,98013.94
2023-04-16T15:26:06.643Z,98012.78
2023-04-16T15:31:08.665Z,98018.28
2023-04-16T15:36:11.346Z,98019.81
2023-04-16T15:41:13.074Z,98011.72
2023-04-16T15:46:15.090Z,98018.38
2023-04-16T15:51:16.865Z,98032.25
2023-04-16T15:56:19.767Z,98031.72
2023-04-16T16:01:22.325Z,98027.84
2023-04-16T16:06:24.339Z,98042.91
2023-04-16T16:11:26.374Z,98045.09
2023-04-16T16:16:28.557Z,98051.34
2023-04-16T16:21:33.243Z,98046.13
2023-04-16T16:26:34.940Z,98047.44
2023-04-16T16:31:36.641Z,98051.94
2023-04-16T16:36:38.258Z,98050.34
2023-04-16T16:41:42.092Z,98056.19
2023-04-16T16:46:43.784Z,98056.00
2023-04-16T16:51:46.793Z,98064.25
2023-04-16T16:56:48.441Z,98064.69
2023-04-16T17:07:19.654Z,98067.28
2023-04-16T17:12:23.317Z,98066.13
2023-04-16T17:17:26.868Z,98070.00
2023-04-16T17:22:28.750Z,98081.69
2023-04-16T17:27:34.447Z,98080.88
2023-04-16T17:32:36.570Z,98088.66
2023-04-16T17:37:38.551Z,98090.00
2023-04-16T17:42:40.540Z,98092.31
2023-04-16T17:47:42.553Z,98096.34
2023-04-16T17:52:44.728Z,98104.59
2023-04-16T17:57:46.646Z,98107.94
2023-04-16T18:02:48.614Z,98121.47
2023-04-16T18:07:50.698Z,98123.88
2023-04-16T18:12:52.831Z,98133.22
2023-04-16T18:17:54.805Z,98141.94
2023-04-16T18:22:56.861Z,98144.00
2023-04-16T18:27:59.192Z,98147.84
2023-04-16T18:33:26.241Z,98154.34
2023-04-16T18:38:23.267Z,98155.31
2023-04-16T18:43:25.561Z,98159.38
2023-04-16T18:48:27.578Z,98164.56
2023-04-16T18:53:29.696Z,98172.66
2023-04-16T18:58:31.632Z,98171.69
2023-04-16T19:03:33.573Z,98166.63
2023-04-16T19:08:35.609Z,98172.50
2023-04-16T19:13:38.722Z,98177.50
2023-04-16T19:18:40.629Z,98179.44
2023-04-16T19:23:42.998Z,98178.47
2023-04-16T19:28:45.767Z,98178.19
2023-04-16T19:33:47.691Z,98181.78
2023-04-16T19:38:50.273Z,98179.19
2023-04-16T19:43:54.964Z,98179.56
2023-04-16T19:48:57.052Z,98178.09
2023-04-16T19:53:59.136Z,98180.81
2023-04-16T19:59:02.137Z,98185.19
2023-04-16T20:04:04.326Z,98192.69
2023-04-16T20:09:06.188Z,98190.59
2023-04-16T20:14:07.990Z,98186.44
2023-04-16T20:19:10.209Z,98191.53
2023-04-16T20:24:12.572Z,98194.22
2023-04-16T20:29:14.857Z,98187.84
2023-04-16T20:34:16.733Z,98191.88
2023-04-16T20:39:20.441Z,98191.34
2023-04-16T20:44:26.396Z,98191.28
2023-04-16T20:49:28.292Z,98191.16
2023-04-16T20:54:31.090Z,98191.78
2023-04-16T20:59:32.936Z,98192.75
2023-04-16T21:04:35.003Z,98193.41
2023-04-16T21:09:37.265Z,98189.38
2023-04-16T21:14:39.123Z,98189.22
2023-04-16T21:19:41.093Z,98192.75
2023-04-16T21:24:42.933Z,98202.31
2023-04-16T21:29:44.763Z,98199.00
2023-04-16T21:34:46.595Z,98199.56
2023-04-16T21:39:48.455Z,98188.03
2023-04-16T21:44:50.263Z,98202.56
2023-04-16T21:49:52.085Z,98199.06
2023-04-16T21:54:53.966Z,98205.66
2023-04-16T21:59:55.764Z,98198.03
2023-04-16T22:04:57.636Z,98196.56
2023-04-16T22:09:59.526Z,98200.09
2023-04-16T22:15:03.172Z,98195.06
2023-04-16T22:20:07.055Z,98204.34
2023-04-16T22:25:09.822Z,98202.19
2023-04-16T22:30:13.414Z,98195.34
2023-04-16T22:35:15.572Z,98193.53
2023-04-16T22:40:18.245Z,98196.91
2023-04-16T22:45:20.106Z,98188.88
2023-04-16T22:50:23.246Z,98190.34
2023-04-16T22:55:25.098Z,98198.25
2023-04-16T23:00:27.414Z,98196.75
2023-04-16T23:05:30.532Z,98194.84
2023-04-16T23:10:32.592Z,98199.72
2023-04-16T23:15:34.631Z,98206.41
2023-04-16T23:20:36.476Z,98203.28
2023-04-16T23:25:41.242Z,98202.69
2023-04-16T23:30:43.059Z,98202.19
2023-04-16T23:35:46.232Z,98204.09
2023-04-16T23:40:48.069Z,98198.53
2023-04-16T23:45:49.981Z,98201.81
2023-04-16T23:50:53.876Z,98194.97
2023-04-16T23:55:55.646Z,98196.47
